sensor_id;sensor_type;location;lat;lon;timestamp;pressure;altitude;pressure_sealevel;temperature;humidity
61109;BME280;46995;55.740;37.402;2023-05-29T00:02:23;99748.16;;;9.47;71.31
61109;BME280;46995;55.740;37.402;2023-05-29T00:04:49;99773.06;;;9.54;71.49
61109;BME280;46995;55.740;37.402;2023-05-29T00:07:16;99757.72;;;9.48;71.50
61109;BME280;46995;55.740;37.402;2023-05-29T00:09:42;99778.13;;;9.57;71.31
61109;BME280;46995;55.740;37.402;2023-05-29T00:12:07;99769.94;;;9.49;71.02
61109;BME280;46995;55.740;37.402;2023-05-29T00:14:33;99778.00;;;9.47;71.44
61109;BME280;46995;55.740;37.402;2023-05-29T00:16:59;99769.72;;;9.41;71.52
61109;BME280;46995;55.740;37.402;2023-05-29T00:19:26;99780.75;;;9.46;71.45
61109;BME280;46995;55.740;37.402;2023-05-29T00:21:52;99786.03;;;9.46;71.54
61109;BME280;46995;55.740;37.402;2023-05-29T00:24:18;99780.75;;;9.46;71.67
61109;BME280;46995;55.740;37.402;2023-05-29T00:26:45;99773.31;;;9.40;71.51
61109;BME280;46995;55.740;37.402;2023-05-29T00:29:11;99762.28;;;9.34;71.79
61109;BME280;46995;55.740;37.402;2023-05-29T00:31:37;99763.97;;;9.35;71.56
61109;BME280;46995;55.740;37.402;2023-05-29T00:34:05;99770.19;;;9.34;71.42
61109;BME280;46995;55.740;37.402;2023-05-29T00:36:31;99766.13;;;9.30;71.41
61109;BME280;46995;55.740;37.402;2023-05-29T00:38:57;99775.81;;;9.30;71.77
61109;BME280;46995;55.740;37.402;2023-05-29T00:41:23;99780.00;;;9.32;71.60
61109;BME280;46995;55.740;37.402;2023-05-29T00:43:48;99781.47;;;9.37;71.86
61109;BME280;46995;55.740;37.402;2023-05-29T00:46:15;99783.13;;;9.38;71.85
61109;BME280;46995;55.740;37.402;2023-05-29T00:48:41;99762.75;;;9.28;71.73
61109;BME280;46995;55.740;37.402;2023-05-29T00:51:09;99777.00;;;9.37;71.78
61109;BME280;46995;55.740;37.402;2023-05-29T00:53:37;99769.22;;;9.24;71.63
61109;BME280;46995;55.740;37.402;2023-05-29T00:56:04;99771.00;;;9.24;71.71
61109;BME280;46995;55.740;37.402;2023-05-29T00:58:33;99770.41;;;9.20;71.65
61109;BME280;46995;55.740;37.402;2023-05-29T01:00:59;99774.59;;;9.23;71.79
61109;BME280;46995;55.740;37.402;2023-05-29T01:03:26;99776.28;;;9.24;71.85
61109;BME280;46995;55.740;37.402;2023-05-29T01:05:53;99772.22;;;9.20;71.90
61109;BME280;46995;55.740;37.402;2023-05-29T01:08:20;99781.31;;;9.16;71.44
61109;BME280;46995;55.740;37.402;2023-05-29T01:11:12;99773.72;;;9.11;72.34
61109;BME280;46995;55.740;37.402;2023-05-29T01:13:41;99767.13;;;9.06;72.28
61109;BME280;46995;55.740;37.402;2023-05-29T01:16:21;99761.75;;;9.07;72.04
61109;BME280;46995;55.740;37.402;2023-05-29T01:18:57;99789.22;;;9.16;72.39
61109;BME280;46995;55.740;37.402;2023-05-29T01:24:19;99805.88;;;9.27;72.26
61109;BME280;46995;55.740;37.402;2023-05-29T01:27:00;99790.75;;;9.18;72.01
61109;BME280;46995;55.740;37.402;2023-05-29T01:29:29;99799.50;;;9.19;72.29
61109;BME280;46995;55.740;37.402;2023-05-29T01:31:59;99780.19;;;9.07;72.29
61109;BME280;46995;55.740;37.402;2023-05-29T01:34:25;99805.72;;;9.18;72.55
61109;BME280;46995;55.740;37.402;2023-05-29T01:36:50;99786.41;;;9.06;72.34
61109;BME280;46995;55.740;37.402;2023-05-29T01:39:16;99804.19;;;9.15;72.31
61109;BME280;46995;55.740;37.402;2023-05-29T01:41:45;99797.69;;;9.08;72.53
61109;BME280;46995;55.740;37.402;2023-05-29T01:44:16;99800.72;;;9.15;72.38
61109;BME280;46995;55.740;37.402;2023-05-29T01:47:04;99803.69;;;9.21;72.77
61109;BME280;46995;55.740;37.402;2023-05-29T01:49:34;99804.69;;;9.20;72.39
61109;BME280;46995;55.740;37.402;2023-05-29T01:52:02;99791.72;;;9.17;72.38
61109;BME280;46995;55.740;37.402;2023-05-29T01:54:28;99781.31;;;9.16;72.18
61109;BME280;46995;55.740;37.402;2023-05-29T01:56:54;99803.22;;;9.27;72.13
61109;BME280;46995;55.740;37.402;2023-05-29T01:59:21;99796.91;;;9.30;72.54
61109;BME280;46995;55.740;37.402;2023-05-29T02:01:48;99798.59;;;9.31;72.57
61109;BME280;46995;55.740;37.402;2023-05-29T02:04:14;99781.56;;;9.24;72.32
61109;BME280;46995;55.740;37.402;2023-05-29T02:06:41;99810.31;;;9.38;72.71
61109;BME280;46995;55.740;37.402;2023-05-29T02:09:07;99790.19;;;9.26;72.57
61109;BME280;46995;55.740;37.402;2023-05-29T02:11:35;99783.84;;;9.28;72.43
61109;BME280;46995;55.740;37.402;2023-05-29T02:14:01;99798.34;;;9.34;72.42
61109;BME280;46995;55.740;37.402;2023-05-29T02:16:30;99783.84;;;9.28;72.42
61109;BME280;46995;55.740;37.402;2023-05-29T02:19:00;99812.13;;;9.49;72.17
61109;BME280;46995;55.740;37.402;2023-05-29T02:21:47;99806.63;;;9.52;72.12
61109;BME280;46995;55.740;37.402;2023-05-29T02:24:14;99813.94;;;9.59;72.03
61109;BME280;46995;55.740;37.402;2023-05-29T02:26:40;99786.50;;;9.40;72.01
61109;BME280;46995;55.740;37.402;2023-05-29T02:29:08;99800.16;;;9.45;71.54
61109;BME280;46995;55.740;37.402;2023-05-29T02:31:34;99800.16;;;9.56;71.69
61109;BME280;46995;55.740;37.402;2023-05-29T02:34:00;99816.84;;;9.67;71.46
61109;BME280;46995;55.740;37.402;2023-05-29T02:36:25;99816.34;;;9.73;71.43
61109;BME280;46995;55.740;37.402;2023-05-29T02:38:53;99786.72;;;9.59;71.03
61109;BME280;46995;55.740;37.402;2023-05-29T02:41:19;99772.97;;;9.55;70.97
61109;BME280;46995;55.740;37.402;2023-05-29T02:43:46;99819.81;;;9.96;70.87
61109;BME280;46995;55.740;37.402;2023-05-29T02:46:12;99814.06;;;10.02;70.58
61109;BME280;46995;55.740;37.402;2023-05-29T02:51:35;99814.16;;;10.12;70.71
61109;BME280;46995;55.740;37.402;2023-05-29T02:54:00;99810.44;;;10.14;70.12
61109;BME280;46995;55.740;37.402;2023-05-29T02:56:26;99819.09;;;10.28;69.28
61109;BME280;46995;55.740;37.402;2023-05-29T02:58:52;99807.69;;;10.27;68.86
61109;BME280;46995;55.740;37.402;2023-05-29T03:01:18;99820.75;;;10.40;68.76
61109;BME280;46995;55.740;37.402;2023-05-29T03:03:44;99829.59;;;10.50;68.21
61109;BME280;46995;55.740;37.402;2023-05-29T03:06:11;99830.66;;;10.58;67.67
61109;BME280;46995;55.740;37.402;2023-05-29T03:08:43;99807.53;;;10.51;68.17
61109;BME280;46995;55.740;37.402;2023-05-29T03:11:12;99808.69;;;10.58;68.32
61109;BME280;46995;55.740;37.402;2023-05-29T03:13:39;99815.50;;;10.72;68.57
61109;BME280;46995;55.740;37.402;2023-05-29T03:16:08;99829.50;;;10.83;68.20
61109;BME280;46995;55.740;37.402;2023-05-29T03:18:36;99835.69;;;10.93;67.91
61109;BME280;46995;55.740;37.402;2023-05-29T03:21:02;99822.59;;;10.92;67.03
61109;BME280;46995;55.740;37.402;2023-05-29T03:23:32;99834.09;;;11.02;65.43
61109;BME280;46995;55.740;37.402;2023-05-29T03:25:59;99845.06;;;11.18;64.76
61109;BME280;46995;55.740;37.402;2023-05-29T03:28:26;99844.69;;;11.23;64.88
61109;BME280;46995;55.740;37.402;2023-05-29T03:30:53;99848.50;;;11.30;64.42
61109;BME280;46995;55.740;37.402;2023-05-29T03:33:20;99829.25;;;11.28;64.17
61109;BME280;46995;55.740;37.402;2023-05-29T03:36:22;99852.66;;;11.53;64.30
61109;BME280;46995;55.740;37.402;2023-05-29T03:38:48;99853.72;;;11.62;64.55
61109;BME280;46995;55.740;37.402;2023-05-29T03:41:22;99842.00;;;11.64;63.77
61109;BME280;46995;55.740;37.402;2023-05-29T03:43:52;99836.44;;;11.67;64.12
61109;BME280;46995;55.740;37.402;2023-05-29T03:46:19;99835.34;;;11.70;63.76
61109;BME280;46995;55.740;37.402;2023-05-29T03:48:45;99833.06;;;11.76;63.05
61109;BME280;46995;55.740;37.402;2023-05-29T03:51:13;99853.88;;;11.91;63.03
61109;BME280;46995;55.740;37.402;2023-05-29T03:53:39;99858.50;;;11.98;63.31
61109;BME280;46995;55.740;37.402;2023-05-29T03:56:07;99839.06;;;11.88;63.05
61109;BME280;46995;55.740;37.402;2023-05-29T03:58:33;99862.28;;;12.05;62.11
61109;BME280;46995;55.740;37.402;2023-05-29T04:01:00;99868.44;;;12.15;62.50
61109;BME280;46995;55.740;37.402;2023-05-29T04:03:29;99865.16;;;12.23;62.99
61109;BME280;46995;55.740;37.402;2023-05-29T04:05:55;99852.75;;;12.23;62.68
61109;BME280;46995;55.740;37.402;2023-05-29T04:08:21;99862.13;;;12.37;62.21
61109;BME280;46995;55.740;37.402;2023-05-29T04:10:47;99832.84;;;12.29;62.35
61109;BME280;46995;55.740;37.402;2023-05-29T04:13:13;99849.59;;;12.49;62.64
61109;BME280;46995;55.740;37.402;2023-05-29T04:15:39;99871.94;;;12.65;61.74
61109;BME280;46995;55.740;37.402;2023-05-29T04:18:05;99868.88;;;12.70;61.78
61109;BME280;46995;55.740;37.402;2023-05-29T04:20:32;99873.34;;;12.79;61.16
61109;BME280;46995;55.740;37.402;2023-05-29T04:22:58;99861.22;;;12.77;61.08
61109;BME280;46995;55.740;37.402;2023-05-29T04:25:24;99860.41;;;12.86;60.36
61109;BME280;46995;55.740;37.402;2023-05-29T04:27:50;99862.91;;;12.97;60.64
61109;BME280;46995;55.740;37.402;2023-05-29T04:30:19;99875.75;;;13.11;60.28
61109;BME280;46995;55.740;37.402;2023-05-29T04:32:48;99859.97;;;13.09;60.74
61109;BME280;46995;55.740;37.402;2023-05-29T04:35:14;99866.72;;;13.23;59.97
61109;BME280;46995;55.740;37.402;2023-05-29T04:37:50;99877.84;;;13.36;58.62
61109;BME280;46995;55.740;37.402;2023-05-29T04:40:16;99874.75;;;13.50;59.17
61109;BME280;46995;55.740;37.402;2023-05-29T04:42:45;99873.38;;;13.46;59.11
61109;BME280;46995;55.740;37.402;2023-05-29T04:45:14;99869.63;;;13.49;58.24
61109;BME280;46995;55.740;37.402;2023-05-29T04:47:42;99867.91;;;13.57;58.65
61109;BME280;46995;55.740;37.402;2023-05-29T04:50:12;99883.09;;;13.75;57.74
61109;BME280;46995;55.740;37.402;2023-05-29T04:52:41;99879.72;;;13.82;57.69
61109;BME280;46995;55.740;37.402;2023-05-29T04:55:09;99869.25;;;13.81;58.15
61109;BME280;46995;55.740;37.402;2023-05-29T04:57:38;99866.03;;;13.87;58.04
61109;BME280;46995;55.740;37.402;2023-05-29T05:00:07;99875.78;;;13.96;57.75
61109;BME280;46995;55.740;37.402;2023-05-29T05:02:43;99879.09;;;14.08;57.36
61109;BME280;46995;55.740;37.402;2023-05-29T05:05:09;99886.31;;;14.15;57.81
61109;BME280;46995;55.740;37.402;2023-05-29T05:07:35;99886.31;;;14.15;56.93
61109;BME280;46995;55.740;37.402;2023-05-29T05:10:03;99874.59;;;14.18;56.86
61109;BME280;46995;55.740;37.402;2023-05-29T05:12:30;99889.31;;;14.30;56.50
61109;BME280;46995;55.740;37.402;2023-05-29T05:14:56;99888.31;;;14.40;56.33
61109;BME280;46995;55.740;37.402;2023-05-29T05:17:24;99885.41;;;14.44;56.35
61109;BME280;46995;55.740;37.402;2023-05-29T05:19:51;99885.94;;;14.47;56.01
61109;BME280;46995;55.740;37.402;2023-05-29T05:22:22;99882.69;;;14.53;56.03
61109;BME280;46995;55.740;37.402;2023-05-29T05:24:50;99885.97;;;14.65;56.31
61109;BME280;46995;55.740;37.402;2023-05-29T05:27:17;99876.31;;;14.64;56.27
61109;BME280;46995;55.740;37.402;2023-05-29T05:29:44;99883.91;;;14.76;56.19
61109;BME280;46995;55.740;37.402;2023-05-29T05:32:10;99880.41;;;14.76;55.23
61109;BME280;46995;55.740;37.402;2023-05-29T05:34:36;99878.97;;;14.81;54.99
61109;BME280;46995;55.740;37.402;2023-05-29T05:37:01;99872.53;;;14.84;54.76
61109;BME280;46995;55.740;37.402;2023-05-29T05:39:28;99867.16;;;14.94;54.47
61109;BME280;46995;55.740;37.402;2023-05-29T05:41:54;99870.72;;;15.02;53.33
61109;BME280;46995;55.740;37.402;2023-05-29T05:44:41;99888.03;;;15.24;52.94
61109;BME280;46995;55.740;37.402;2023-05-29T05:47:10;99889.81;;;15.33;52.78
61109;BME280;46995;55.740;37.402;2023-05-29T05:49:36;99890.19;;;15.38;52.42
61109;BME280;46995;55.740;37.402;2023-05-29T05:52:02;99880.66;;;15.36;52.92
61109;BME280;46995;55.740;37.402;2023-05-29T05:54:28;99882.09;;;15.48;51.13
61109;BME280;46995;55.740;37.402;2023-05-29T05:56:54;99886.38;;;15.58;50.34
61109;BME280;46995;55.740;37.402;2023-05-29T05:59:20;99893.41;;;15.67;50.50
61109;BME280;46995;55.740;37.402;2023-05-29T06:01:46;99900.31;;;15.78;49.39
61109;BME280;46995;55.740;37.402;2023-05-29T06:04:13;99903.03;;;15.86;48.47
61109;BME280;46995;55.740;37.402;2023-05-29T06:06:39;99897.06;;;15.92;48.07
61109;BME280;46995;55.740;37.402;2023-05-29T06:09:05;99883.59;;;15.94;48.45
61109;BME280;46995;55.740;37.402;2023-05-29T06:11:31;99896.66;;;16.05;49.04
61109;BME280;46995;55.740;37.402;2023-05-29T06:13:57;99895.34;;;16.09;48.46
61109;BME280;46995;55.740;37.402;2023-05-29T06:16:28;99876.69;;;16.09;47.58
61109;BME280;46995;55.740;37.402;2023-05-29T06:18:54;99882.22;;;16.16;47.66
61109;BME280;46995;55.740;37.402;2023-05-29T06:21:20;99877.28;;;16.29;48.05
61109;BME280;46995;55.740;37.402;2023-05-29T06:23:51;99894.31;;;16.36;47.41
61109;BME280;46995;55.740;37.402;2023-05-29T06:26:17;99898.69;;;16.45;45.96
61109;BME280;46995;55.740;37.402;2023-05-29T06:28:43;99880.50;;;16.40;44.58
61109;BME280;46995;55.740;37.402;2023-05-29T06:31:09;99877.34;;;16.45;43.82
61109;BME280;46995;55.740;37.402;2023-05-29T06:33:36;99888.41;;;16.58;43.13
61109;BME280;46995;55.740;37.402;2023-05-29T06:36:04;99894.78;;;16.65;43.78
61109;BME280;46995;55.740;37.402;2023-05-29T06:38:31;99898.47;;;16.80;44.95
61109;BME280;46995;55.740;37.402;2023-05-29T06:40:58;99911.47;;;16.75;41.69
61109;BME280;46995;55.740;37.402;2023-05-29T06:43:25;99907.97;;;16.75;40.84
61109;BME280;46995;55.740;37.402;2023-05-29T06:45:56;99903.31;;;16.69;40.38
61109;BME280;46995;55.740;37.402;2023-05-29T06:48:22;99900.13;;;16.65;40.12
61109;BME280;46995;55.740;37.402;2023-05-29T06:50:48;99914.69;;;16.79;40.29
61109;BME280;46995;55.740;37.402;2023-05-29T06:53:41;99907.50;;;16.79;40.05
61109;BME280;46995;55.740;37.402;2023-05-29T06:56:10;99907.16;;;16.82;40.35
61109;BME280;46995;55.740;37.402;2023-05-29T06:58:35;99904.34;;;16.84;40.61
61109;BME280;46995;55.740;37.402;2023-05-29T07:04:42;99896.19;;;16.93;40.43
61109;BME280;46995;55.740;37.402;2023-05-29T07:07:08;99910.22;;;17.04;40.90
61109;BME280;46995;55.740;37.402;2023-05-29T07:09:35;99905.91;;;17.11;40.35
61109;BME280;46995;55.740;37.402;2023-05-29T07:12:01;99900.22;;;17.14;40.77
61109;BME280;46995;55.740;37.402;2023-05-29T07:14:28;99914.25;;;17.24;40.44
61109;BME280;46995;55.740;37.402;2023-05-29T07:16:54;99891.38;;;17.13;39.43
61109;BME280;46995;55.740;37.402;2023-05-29T07:19:20;99897.91;;;17.19;38.88
61109;BME280;46995;55.740;37.402;2023-05-29T07:21:45;99898.88;;;17.18;38.77
61109;BME280;46995;55.740;37.402;2023-05-29T07:24:12;99901.56;;;17.34;40.64
61109;BME280;46995;55.740;37.402;2023-05-29T07:26:38;99906.91;;;17.34;39.18
61109;BME280;46995;55.740;37.402;2023-05-29T07:29:04;99897.06;;;17.34;38.40
61109;BME280;46995;55.740;37.402;2023-05-29T07:31:31;99896.25;;;17.50;39.48
61109;BME280;46995;55.740;37.402;2023-05-29T07:33:57;99890.25;;;17.40;39.37
61109;BME280;46995;55.740;37.402;2023-05-29T07:36:22;99903.09;;;17.53;38.98
61109;BME280;46995;55.740;37.402;2023-05-29T07:38:52;99901.44;;;17.60;38.02
61109;BME280;46995;55.740;37.402;2023-05-29T07:41:19;99891.28;;;17.63;38.19
61109;BME280;46995;55.740;37.402;2023-05-29T07:43:53;99885.56;;;17.58;38.44
61109;BME280;46995;55.740;37.402;2023-05-29T07:46:21;99888.59;;;17.63;37.38
61109;BME280;46995;55.740;37.402;2023-05-29T07:48:50;99900.47;;;17.69;37.54
61109;BME280;46995;55.740;37.402;2023-05-29T07:51:16;99892.25;;;17.78;39.05
61109;BME280;46995;55.740;37.402;2023-05-29T07:53:45;99870.34;;;17.59;38.79
61109;BME280;46995;55.740;37.402;2023-05-29T07:56:12;99885.91;;;17.71;38.50
61109;BME280;46995;55.740;37.402;2023-05-29T07:58:39;99896.91;;;17.93;39.18
61109;BME280;46995;55.740;37.402;2023-05-29T08:01:07;99875.19;;;17.79;37.56
61109;BME280;46995;55.740;37.402;2023-05-29T08:03:34;99904.75;;;17.86;38.50
61109;BME280;46995;55.740;37.402;2023-05-29T08:06:03;99890.75;;;17.84;37.83
61109;BME280;46995;55.740;37.402;2023-05-29T08:08:30;99899.94;;;17.90;38.90
61109;BME280;46995;55.740;37.402;2023-05-29T08:10:57;99895.38;;;17.98;38.40
61109;BME280;46995;55.740;37.402;2023-05-29T08:13:24;99892.34;;;18.01;36.12
61109;BME280;46995;55.740;37.402;2023-05-29T08:15:52;99893.72;;;18.05;37.38
61109;BME280;46995;55.740;37.402;2023-05-29T08:18:18;99896.19;;;18.07;37.18
61109;BME280;46995;55.740;37.402;2023-05-29T08:20:44;99879.66;;;17.95;36.61
61109;BME280;46995;55.740;37.402;2023-05-29T08:23:10;99901.41;;;18.00;36.85
61109;BME280;46995;55.740;37.402;2023-05-29T08:25:36;99889.56;;;17.95;36.64
61109;BME280;46995;55.740;37.402;2023-05-29T08:28:02;99892.38;;;17.93;36.80
61109;BME280;46995;55.740;37.402;2023-05-29T08:30:28;99900.22;;;18.03;37.32
61109;BME280;46995;55.740;37.402;2023-05-29T08:32:53;99898.03;;;18.06;37.40
61109;BME280;46995;55.740;37.402;2023-05-29T08:35:19;99895.66;;;18.11;37.01
61109;BME280;46995;55.740;37.402;2023-05-29T08:37:45;99895.50;;;18.21;37.45
61109;BME280;46995;55.740;37.402;2023-05-29T08:40:11;99891.47;;;18.25;37.33
61109;BME280;46995;55.740;37.402;2023-05-29T08:43:02;99884.38;;;18.40;35.41
61109;BME280;46995;55.740;37.402;2023-05-29T08:45:42;99877.84;;;18.43;36.05
61109;BME280;46995;55.740;37.402;2023-05-29T08:48:14;99882.16;;;18.52;36.46
61109;BME280;46995;55.740;37.402;2023-05-29T08:50:43;99881.63;;;18.65;36.88
61109;BME280;46995;55.740;37.402;2023-05-29T08:53:10;99867.97;;;18.51;36.38
61109;BME280;46995;55.740;37.402;2023-05-29T08:55:45;99854.28;;;18.46;36.48
61109;BME280;46995;55.740;37.402;2023-05-29T08:58:26;99785.91;;;18.13;35.30
61109;BME280;46995;55.740;37.402;2023-05-29T09:04:41;99867.69;;;18.77;34.78
61109;BME280;46995;55.740;37.402;2023-05-29T09:07:07;99861.19;;;18.72;35.16
61109;BME280;46995;55.740;37.402;2023-05-29T09:09:34;99868.63;;;18.84;35.00
61109;BME280;46995;55.740;37.402;2023-05-29T09:12:09;99865.16;;;18.84;35.34
61109;BME280;46995;55.740;37.402;2023-05-29T09:14:39;99853.81;;;18.74;34.83
61109;BME280;46995;55.740;37.402;2023-05-29T09:17:07;99861.03;;;18.73;34.94
61109;BME280;46995;55.740;37.402;2023-05-29T09:19:35;99851.47;;;18.79;35.57
61109;BME280;46995;55.740;37.402;2023-05-29T09:22:07;99856.91;;;18.85;35.30
61109;BME280;46995;55.740;37.402;2023-05-29T09:24:36;99852.22;;;18.87;36.68
61109;BME280;46995;55.740;37.402;2023-05-29T09:27:04;99860.03;;;18.97;36.61
61109;BME280;46995;55.740;37.402;2023-05-29T09:29:31;99849.84;;;18.92;36.05
61109;BME280;46995;55.740;37.402;2023-05-29T09:32:08;99856.81;;;19.01;36.29
61109;BME280;46995;55.740;37.402;2023-05-29T09:34:35;99843.28;;;18.95;35.98
61109;BME280;46995;55.740;37.402;2023-05-29T09:37:03;99848.59;;;19.03;35.52
61109;BME280;46995;55.740;37.402;2023-05-29T09:39:46;99851.59;;;19.08;34.77
61109;BME280;46995;55.740;37.402;2023-05-29T09:42:16;99838.25;;;19.00;34.65
61109;BME280;46995;55.740;37.402;2023-05-29T09:44:50;99856.69;;;19.18;34.33
61109;BME280;46995;55.740;37.402;2023-05-29T09:47:21;99834.44;;;19.17;34.49
61109;BME280;46995;55.740;37.402;2023-05-29T09:49:47;99830.91;;;19.17;34.96
61109;BME280;46995;55.740;37.402;2023-05-29T09:52:14;99826.53;;;19.24;34.81
61109;BME280;46995;55.740;37.402;2023-05-29T09:54:44;99838.19;;;19.31;34.12
61109;BME280;46995;55.740;37.402;2023-05-29T09:57:25;99829.13;;;19.32;34.02
61109;BME280;46995;55.740;37.402;2023-05-29T09:59:58;99828.94;;;19.33;33.81
61109;BME280;46995;55.740;37.402;2023-05-29T10:02:29;99808.63;;;19.24;33.92
61109;BME280;46995;55.740;37.402;2023-05-29T10:05:03;99807.91;;;19.30;33.80
61109;BME280;46995;55.740;37.402;2023-05-29T10:07:35;99841.94;;;19.44;33.87
61109;BME280;46995;55.740;37.402;2023-05-29T10:10:06;99816.28;;;19.27;34.15
61109;BME280;46995;55.740;37.402;2023-05-29T10:12:37;99820.25;;;19.31;33.53
61109;BME280;46995;55.740;37.402;2023-05-29T10:15:12;99815.81;;;19.24;33.41
61109;BME280;46995;55.740;37.402;2023-05-29T10:17:46;99840.50;;;19.34;33.08
61109;BME280;46995;55.740;37.402;2023-05-29T10:20:15;99825.97;;;19.28;33.19
61109;BME280;46995;55.740;37.402;2023-05-29T10:22:46;99828.59;;;19.36;32.97
61109;BME280;46995;55.740;37.402;2023-05-29T10:25:13;99825.94;;;19.36;33.17
61109;BME280;46995;55.740;37.402;2023-05-29T10:27:41;99821.19;;;19.38;33.68
61109;BME280;46995;55.740;37.402;2023-05-29T10:36:04;99810.75;;;19.52;32.14
61109;BME280;46995;55.740;37.402;2023-05-29T10:38:33;99822.03;;;19.62;32.88
61109;BME280;46995;55.740;37.402;2023-05-29T10:44:01;99814.88;;;19.54;31.76
61109;BME280;46995;55.740;37.402;2023-05-29T10:49:17;99820.06;;;19.56;31.61
61109;BME280;46995;55.740;37.402;2023-05-29T10:51:43;99807.41;;;19.50;31.90
61109;BME280;46995;55.740;37.402;2023-05-29T10:54:09;99783.47;;;19.48;32.04
61109;BME280;46995;55.740;37.402;2023-05-29T10:56:36;99796.59;;;19.58;32.01
61109;BME280;46995;55.740;37.402;2023-05-29T10:59:03;99775.63;;;19.47;31.91
61109;BME280;46995;55.740;37.402;2023-05-29T11:01:30;99782.72;;;19.54;32.20
61109;BME280;46995;55.740;37.402;2023-05-29T11:06:44;99787.09;;;19.70;33.21
61109;BME280;46995;55.740;37.402;2023-05-29T11:14:53;99793.38;;;19.77;32.75
61109;BME280;46995;55.740;37.402;2023-05-29T11:20:06;99789.59;;;19.86;33.21
61109;BME280;46995;55.740;37.402;2023-05-29T11:25:14;99786.53;;;19.89;33.83
61109;BME280;46995;55.740;37.402;2023-05-29T11:27:43;99784.22;;;19.86;33.45
61109;BME280;46995;55.740;37.402;2023-05-29T11:30:09;99765.56;;;19.78;32.74
61109;BME280;46995;55.740;37.402;2023-05-29T11:32:36;99770.91;;;19.93;32.66
61109;BME280;46995;55.740;37.402;2023-05-29T11:35:08;99758.06;;;19.88;33.31
61109;BME280;46995;55.740;37.402;2023-05-29T11:37:41;99763.78;;;20.00;32.75
61109;BME280;46995;55.740;37.402;2023-05-29T11:40:12;99765.84;;;19.98;32.51
61109;BME280;46995;55.740;37.402;2023-05-29T11:42:45;99741.59;;;19.91;33.20
61109;BME280;46995;55.740;37.402;2023-05-29T11:45:12;99752.50;;;20.04;33.04
61109;BME280;46995;55.740;37.402;2023-05-29T11:47:58;99759.44;;;20.13;33.14
61109;BME280;46995;55.740;37.402;2023-05-29T11:50:29;99758.84;;;20.18;32.77
61109;BME280;46995;55.740;37.402;2023-05-29T11:52:57;99739.38;;;20.09;32.85
61109;BME280;46995;55.740;37.402;2023-05-29T11:55:24;99753.19;;;20.27;32.27
61109;BME280;46995;55.740;37.402;2023-05-29T11:57:55;99749.50;;;20.28;32.57
61109;BME280;46995;55.740;37.402;2023-05-29T12:00:21;99732.75;;;20.26;32.98
61109;BME280;46995;55.740;37.402;2023-05-29T12:02:48;99756.91;;;20.62;32.79
61109;BME280;46995;55.740;37.402;2023-05-29T12:05:17;99749.56;;;21.76;29.26
61109;BME280;46995;55.740;37.402;2023-05-29T12:07:52;99729.81;;;23.76;28.22
61109;BME280;46995;55.740;37.402;2023-05-29T12:10:27;99735.66;;;26.15;25.11
61109;BME280;46995;55.740;37.402;2023-05-29T12:12:58;99723.22;;;28.14;22.91
61109;BME280;46995;55.740;37.402;2023-05-29T12:15:24;99673.16;;;29.38;22.02
61109;BME280;46995;55.740;37.402;2023-05-29T12:17:52;99721.50;;;31.21;19.78
61109;BME280;46995;55.740;37.402;2023-05-29T12:20:21;99720.22;;;32.37;19.03
61109;BME280;46995;55.740;37.402;2023-05-29T12:22:47;99707.88;;;33.82;17.93
61109;BME280;46995;55.740;37.402;2023-05-29T12:25:19;99702.44;;;35.09;16.00
61109;BME280;46995;55.740;37.402;2023-05-29T12:27:47;99732.56;;;36.43;15.86
61109;BME280;46995;55.740;37.402;2023-05-29T12:32:50;99688.88;;;37.06;13.75
61109;BME280;46995;55.740;37.402;2023-05-29T12:35:20;99718.00;;;37.86;14.04
61109;BME280;46995;55.740;37.402;2023-05-29T12:37:52;99712.06;;;38.06;13.92
61109;BME280;46995;55.740;37.402;2023-05-29T12:40:23;99711.31;;;38.41;13.82
61109;BME280;46995;55.740;37.402;2023-05-29T12:42:54;99702.66;;;38.21;13.02
61109;BME280;46995;55.740;37.402;2023-05-29T12:45:21;99703.25;;;37.49;13.95
61109;BME280;46995;55.740;37.402;2023-05-29T12:47:56;99706.00;;;35.67;14.24
61109;BME280;46995;55.740;37.402;2023-05-29T12:50:26;99699.28;;;34.58;15.13
61109;BME280;46995;55.740;37.402;2023-05-29T12:53:11;99704.09;;;34.76;15.70
61109;BME280;46995;55.740;37.402;2023-05-29T12:55:40;99686.88;;;34.26;15.88
61109;BME280;46995;55.740;37.402;2023-05-29T12:58:07;99682.41;;;33.66;16.13
61109;BME280;46995;55.740;37.402;2023-05-29T13:00:35;99686.09;;;33.31;16.30
61109;BME280;46995;55.740;37.402;2023-05-29T13:03:02;99683.13;;;32.92;17.00
61109;BME280;46995;55.740;37.402;2023-05-29T13:05:28;99695.06;;;32.30;17.35
61109;BME280;46995;55.740;37.402;2023-05-29T13:07:54;99693.19;;;31.27;18.03
61109;BME280;46995;55.740;37.402;2023-05-29T13:10:20;99695.78;;;30.48;20.08
61109;BME280;46995;55.740;37.402;2023-05-29T13:12:47;99683.63;;;28.46;20.35
61109;BME280;46995;55.740;37.402;2023-05-29T13:15:14;99689.78;;;27.04;21.75
61109;BME280;46995;55.740;37.402;2023-05-29T13:17:41;99699.50;;;25.92;22.66
61109;BME280;46995;55.740;37.402;2023-05-29T13:20:09;99692.31;;;25.06;24.12
61109;BME280;46995;55.740;37.402;2023-05-29T13:22:38;99701.50;;;24.42;24.78
61109;BME280;46995;55.740;37.402;2023-05-29T13:25:05;99700.81;;;24.02;24.76
61109;BME280;46995;55.740;37.402;2023-05-29T13:27:36;99698.06;;;23.71;25.15
61109;BME280;46995;55.740;37.402;2023-05-29T13:30:04;99710.16;;;23.42;25.57
61109;BME280;46995;55.740;37.402;2023-05-29T13:32:31;99678.28;;;23.00;24.97
61109;BME280;46995;55.740;37.402;2023-05-29T13:34:57;99689.91;;;22.80;25.50
61109;BME280;46995;55.740;37.402;2023-05-29T13:37:23;99692.97;;;22.64;25.90
61109;BME280;46995;55.740;37.402;2023-05-29T13:39:49;99704.75;;;22.50;25.88
61109;BME280;46995;55.740;37.402;2023-05-29T13:42:17;99673.00;;;22.13;26.13